Time;durP1;ratioP1;P1;durP2;ratioP2;P2;SDS_P1;SDS_P2;PMS_P1;PMS_P2;Temp;Humidity;BMP_temperature;BMP_pressure;BME280_temperature;BME280_humidity;BME280_pressure;Samples;Min_cycle;Max_cycle;Signal;HPM_P1;HPM_P2
2022/03/01 00:00:22;;;;;;;;;5.00;5.00;20.00;99.90;;;;;;5045946;28;9240;-60
2022/03/01 00:02:54;;;;;;;;;4.00;4.00;20.00;99.90;;;;;;5053754;28;9678;-60
2022/03/01 00:05:24;;;;;;;;;3.00;3.00;20.00;99.90;;;;;;5053233;28;9222;-59
2022/03/01 00:07:55;;;;;;;;;4.00;4.00;20.10;99.90;;;;;;5048637;28;9269;-55
2022/03/01 00:10:25;;;;;;;;;3.00;3.00;20.00;99.90;;;;;;5047458;28;9397;-55
2022/03/01 00:13:08;;;;;;;;;4.00;4.00;20.10;99.90;;;;;;5048659;28;9259;-62
2022/03/01 00:15:39;;;;;;;;;4.33;4.33;20.10;99.90;;;;;;5042772;28;11955;-60
2022/03/01 00:18:10;;;;;;;;;4.33;4.33;20.10;99.90;;;;;;5036832;28;10244;-55
2022/03/01 00:20:41;;;;;;;;;3.33;3.33;20.10;99.90;;;;;;5049171;28;9253;-55
2022/03/01 00:23:12;;;;;;;;;4.67;4.67;20.10;99.90;;;;;;5049228;28;9398;-53
2022/03/01 00:25:44;;;;;;;;;7.00;5.67;20.10;99.90;;;;;;5043486;28;9381;-55
2022/03/01 00:28:17;;;;;;;;;5.00;5.00;20.10;99.90;;;;;;5055399;28;9278;-60
2022/03/01 00:30:48;;;;;;;;;5.00;5.00;20.10;99.90;;;;;;5047726;28;9414;-60
2022/03/01 00:33:19;;;;;;;;;5.00;5.00;20.10;99.90;;;;;;5053912;28;9393;-59
2022/03/01 00:35:51;;;;;;;;;8.00;8.00;20.10;99.90;;;;;;5041564;28;9206;-61
2022/03/01 00:38:23;;;;;;;;;7.67;7.67;20.10;99.90;;;;;;5056310;28;9466;-60
2022/03/01 00:40:53;;;;;;;;;5.33;5.33;20.10;99.90;;;;;;5045331;28;9475;-53
2022/03/01 00:43:31;;;;;;;;;3.00;3.00;20.10;99.90;;;;;;5048827;28;9345;-53
2022/03/01 00:46:00;;;;;;;;;4.33;4.00;20.10;99.90;;;;;;5048801;28;9386;-54
2022/03/01 00:48:35;;;;;;;;;6.33;6.33;20.10;99.90;;;;;;5052403;28;9355;-59
2022/03/01 00:51:07;;;;;;;;;5.00;5.00;20.10;99.90;;;;;;5048117;28;9503;-59
2022/03/01 00:53:41;;;;;;;;;6.00;4.00;20.10;99.90;;;;;;5050685;28;10164;-59
2022/03/01 00:56:12;;;;;;;;;3.00;3.00;20.10;99.90;;;;;;5048913;28;9398;-54
2022/03/01 00:58:43;;;;;;;;;4.00;4.00;20.10;99.90;;;;;;5054339;28;9236;-60
2022/03/01 01:01:15;;;;;;;;;4.00;4.00;20.10;99.90;;;;;;5049633;28;9401;-60
2022/03/01 01:03:47;;;;;;;;;4.33;4.33;20.10;99.90;;;;;;5048336;28;9467;-60
2022/03/01 01:06:18;;;;;;;;;4.00;2.00;20.00;99.90;;;;;;5058623;28;9325;-60
2022/03/01 01:08:49;;;;;;;;;3.00;3.00;20.00;99.90;;;;;;5048500;28;9355;-54
2022/03/01 01:11:20;;;;;;;;;3.00;3.00;20.00;99.90;;;;;;5053155;28;9381;-59
2022/03/01 01:13:53;;;;;;;;;3.00;3.00;20.00;99.90;;;;;;5053719;28;9506;-56
2022/03/01 01:16:26;;;;;;;;;3.00;3.00;20.00;99.90;;;;;;5035411;28;9257;-56
2022/03/01 01:18:57;;;;;;;;;3.33;3.33;20.00;99.90;;;;;;5053403;28;9240;-60
2022/03/01 01:22:39;;;;;;;;;5.33;5.33;20.00;99.90;;;;;;5054449;28;9401;-59
2022/03/01 01:24:19;;;;;;;;;5.00;5.00;19.90;99.90;;;;;;5054372;28;9555;-61
2022/03/01 01:26:49;;;;;;;;;3.33;3.33;19.90;99.90;;;;;;5050971;28;9497;-60
2022/03/01 01:29:24;;;;;;;;;3.00;3.00;19.90;99.90;;;;;;5054100;28;9456;-53
2022/03/01 01:31:58;;;;;;;;;1.33;1.33;19.80;99.90;;;;;;5052565;28;9455;-54
2022/03/01 01:34:29;;;;;;;;;3.25;3.25;19.80;99.90;;;;;;5049931;28;9498;-51
2022/03/01 01:37:00;;;;;;;;;2.50;2.50;19.80;99.90;;;;;;5051440;28;9645;-54
2022/03/01 01:39:31;;;;;;;;;2.00;2.00;19.70;99.90;;;;;;5052390;28;9783;-59
2022/03/01 01:42:01;;;;;;;;;3.00;3.00;19.70;99.90;;;;;;5056880;28;9595;-60
2022/03/01 01:44:33;;;;;;;;;3.00;3.00;19.60;99.90;;;;;;5054910;28;9523;-60
2022/03/01 01:47:04;;;;;;;;;3.67;3.67;19.60;99.90;;;;;;5044911;28;9460;-53
2022/03/01 01:49:37;;;;;;;;;2.00;2.00;19.60;99.90;;;;;;5052526;28;9486;-60
2022/03/01 01:52:10;;;;;;;;;3.00;3.00;19.50;99.90;;;;;;5057823;28;9901;-60
2022/03/01 01:54:42;;;;;;;;;2.75;2.75;19.50;99.90;;;;;;5052577;28;10334;-60
2022/03/01 01:57:16;;;;;;;;;2.00;2.00;19.50;99.90;;;;;;5052918;28;10502;-53
2022/03/01 01:59:48;;;;;;;;;1.50;1.50;19.50;99.90;;;;;;5048791;28;10251;-61
2022/03/01 02:02:22;;;;;;;;;2.25;2.25;19.40;99.90;;;;;;5056763;28;10439;-54
2022/03/01 02:04:56;;;;;;;;;2.00;2.00;19.30;99.90;;;;;;5055568;28;9700;-56
2022/03/01 02:07:26;;;;;;;;;2.00;2.00;19.20;99.90;;;;;;5051538;28;9759;-59
2022/03/01 02:09:58;;;;;;;;;2.00;2.00;19.20;99.90;;;;;;5053610;28;9750;-60
2022/03/01 02:12:33;;;;;;;;;2.00;2.00;19.20;99.90;;;;;;5054284;28;9851;-55
2022/03/01 02:15:03;;;;;;;;;2.00;2.00;19.10;99.90;;;;;;5056296;28;9943;-59
2022/03/01 02:17:40;;;;;;;;;1.50;1.50;19.10;99.90;;;;;;5052926;28;9825;-53
2022/03/01 02:20:18;;;;;;;;;1.00;1.00;19.00;99.90;;;;;;5054967;28;9819;-53
2022/03/01 02:22:56;;;;;;;;;1.50;1.50;18.90;99.90;;;;;;5057426;28;9863;-59
2022/03/01 02:25:26;;;;;;;;;2.50;2.50;18.80;99.90;;;;;;5054623;28;9849;-61
2022/03/01 02:27:57;;;;;;;;;3.00;1.75;18.80;99.90;;;;;;5066706;28;9926;-53
2022/03/01 02:30:28;;;;;;;;;2.00;2.00;18.90;99.90;;;;;;5050201;28;9834;-60
2022/03/01 02:32:59;;;;;;;;;1.00;1.00;18.80;99.90;;;;;;5058515;28;10038;-60
2022/03/01 02:35:30;;;;;;;;;1.75;1.00;18.90;99.90;;;;;;5050177;28;9915;-55
2022/03/01 02:38:03;;;;;;;;;2.75;2.00;18.80;99.90;;;;;;5053355;28;10153;-60
2022/03/01 02:40:35;;;;;;;;;1.00;1.00;18.70;99.90;;;;;;5058028;28;10004;-61
2022/03/01 02:43:07;;;;;;;;;1.50;1.50;18.60;99.90;;;;;;5057212;28;10052;-54
2022/03/01 02:45:39;;;;;;;;;2.00;2.00;18.50;99.90;;;;;;5050723;28;10100;-53
2022/03/01 02:48:10;;;;;;;;;2.00;2.00;18.40;99.90;;;;;;5040664;28;10058;-53
2022/03/01 02:50:43;;;;;;;;;2.75;2.75;18.40;99.90;;;;;;5057436;28;10436;-54
2022/03/01 02:53:16;;;;;;;;;3.50;1.00;18.40;99.90;;;;;;5054791;28;10084;-53
2022/03/01 02:55:49;;;;;;;;;2.50;2.50;18.40;99.90;;;;;;5051644;28;10018;-61
2022/03/01 02:58:21;;;;;;;;;1.25;1.25;18.50;99.90;;;;;;5054637;28;10077;-55
2022/03/01 03:00:53;;;;;;;;;2.00;2.00;18.40;99.90;;;;;;5053703;28;10100;-61
2022/03/01 03:03:26;;;;;;;;;0.00;0.00;18.40;99.90;;;;;;5056187;28;10940;-54
2022/03/01 03:05:57;;;;;;;;;5.00;2.00;18.40;99.90;;;;;;5049796;28;9988;-54
2022/03/01 03:08:27;;;;;;;;;2.75;2.00;18.40;99.90;;;;;;5032167;28;10042;-54
2022/03/01 03:11:01;;;;;;;;;1.25;1.25;18.30;99.90;;;;;;5053582;28;10085;-53
2022/03/01 03:13:33;;;;;;;;;2.00;2.00;18.30;99.90;;;;;;5051433;28;9934;-52
2022/03/01 03:16:07;;;;;;;;;0.75;0.75;18.30;99.90;;;;;;5052647;28;10633;-51
2022/03/01 03:18:39;;;;;;;;;2.75;2.75;18.30;99.90;;;;;;5054931;28;10066;-60
2022/03/01 03:21:13;;;;;;;;;3.75;3.00;18.20;99.90;;;;;;5052467;28;10114;-61
2022/03/01 03:23:43;;;;;;;;;1.00;1.00;18.20;99.90;;;;;;5048567;28;10194;-60
2022/03/01 03:26:14;;;;;;;;;1.00;1.00;18.20;99.90;;;;;;5051544;28;10060;-62
2022/03/01 03:28:49;;;;;;;;;0.00;0.00;18.10;99.90;;;;;;5056384;28;10176;-54
2022/03/01 03:31:21;;;;;;;;;3.00;3.00;18.10;99.90;;;;;;5055560;28;10132;-52
2022/03/01 03:33:51;;;;;;;;;2.00;2.00;18.00;99.90;;;;;;5050647;28;10318;-60
2022/03/01 03:36:23;;;;;;;;;3.00;3.00;18.00;99.90;;;;;;5053879;28;10946;-61
2022/03/01 03:38:54;;;;;;;;;1.50;1.50;18.00;99.90;;;;;;5054802;28;10100;-60
2022/03/01 03:41:26;;;;;;;;;1.00;1.00;18.00;99.90;;;;;;5049436;28;10088;-53
2022/03/01 03:43:59;;;;;;;;;4.00;2.00;17.90;99.90;;;;;;5053851;28;10469;-60
2022/03/01 03:46:31;;;;;;;;;0.00;0.00;17.90;99.90;;;;;;5050516;28;10361;-61
2022/03/01 03:49:01;;;;;;;;;4.00;4.00;17.90;99.90;;;;;;5055620;28;10724;-60
2022/03/01 03:51:32;;;;;;;;;3.00;3.00;17.80;99.90;;;;;;5052792;28;10795;-60
2022/03/01 03:54:05;;;;;;;;;4.00;4.00;17.80;99.90;;;;;;5045935;28;11022;-55
2022/03/01 03:56:36;;;;;;;;;17.00;17.00;17.80;99.90;;;;;;5050238;28;12281;-52
2022/03/01 03:59:07;;;;;;;;;18.00;16.75;17.80;99.90;;;;;;5051164;28;11451;-55
2022/03/01 04:01:39;;;;;;;;;16.25;16.25;17.70;99.90;;;;;;5051415;28;11498;-53
2022/03/01 04:04:11;;;;;;;;;16.50;16.50;17.70;99.90;;;;;;5053478;28;11493;-60
2022/03/01 04:06:43;;;;;;;;;12.00;12.00;17.60;99.90;;;;;;5052591;28;11654;-60
2022/03/01 04:09:15;;;;;;;;;8.75;8.75;17.60;99.90;;;;;;5020803;28;11563;-60
2022/03/01 04:11:46;;;;;;;;;11.00;10.75;17.60;99.90;;;;;;5051659;28;11509;-56
2022/03/01 04:14:19;;;;;;;;;12.25;12.00;17.50;99.90;;;;;;5058802;28;11753;-62
2022/03/01 04:16:51;;;;;;;;;10.25;10.25;17.50;99.90;;;;;;5050916;28;11230;-60
2022/03/01 04:19:23;;;;;;;;;7.00;6.75;17.50;99.90;;;;;;5053799;28;11174;-61
2022/03/01 04:22:07;;;;;;;;;4.00;4.00;17.40;99.90;;;;;;5045248;28;11166;-60
2022/03/01 04:24:39;;;;;;;;;3.00;3.00;17.40;99.90;;;;;;5051986;28;10848;-52
2022/03/01 04:27:12;;;;;;;;;3.00;3.00;17.40;99.90;;;;;;5049647;28;10567;-61
2022/03/01 04:29:43;;;;;;;;;4.00;3.75;17.30;99.90;;;;;;5066440;28;11068;-61
2022/03/01 04:32:16;;;;;;;;;5.50;4.25;17.30;99.90;;;;;;5049293;28;11449;-53
2022/03/01 04:34:48;;;;;;;;;4.00;4.00;17.20;99.90;;;;;;5052125;28;11536;-55
2022/03/01 04:37:20;;;;;;;;;3.75;3.75;17.20;99.90;;;;;;5050985;28;11263;-61
2022/03/01 04:39:51;;;;;;;;;5.00;3.00;17.20;99.90;;;;;;5053103;28;10751;-61
2022/03/01 04:42:24;;;;;;;;;3.00;3.00;17.10;99.90;;;;;;5052063;28;10867;-61
2022/03/01 04:44:56;;;;;;;;;2.50;2.50;17.10;99.90;;;;;;5050088;28;10764;-61
2022/03/01 04:47:27;;;;;;;;;3.75;3.75;17.10;99.90;;;;;;5048976;28;10693;-60
2022/03/01 04:50:00;;;;;;;;;2.00;2.00;17.00;99.90;;;;;;5048904;28;10966;-60
2022/03/01 04:52:29;;;;;;;;;3.00;3.00;17.00;99.90;;;;;;5049005;28;10592;-60
2022/03/01 04:55:01;;;;;;;;;3.00;2.25;17.00;99.90;;;;;;5053927;28;10668;-59
2022/03/01 04:57:32;;;;;;;;;2.00;2.00;16.90;99.90;;;;;;5048258;28;10713;-61
2022/03/01 05:00:12;;;;;;;;;2.00;2.00;16.90;99.90;;;;;;5050902;28;12131;-60
2022/03/01 05:02:48;;;;;;;;;4.00;2.75;16.80;99.90;;;;;;5050181;28;12028;-54
2022/03/01 05:05:23;;;;;;;;;2.50;2.50;16.80;99.90;;;;;;5056691;28;10612;-59
2022/03/01 05:07:54;;;;;;;;;4.00;2.00;16.70;99.90;;;;;;5053133;28;10832;-54
2022/03/01 05:10:25;;;;;;;;;1.00;1.00;16.70;99.90;;;;;;5052102;28;10876;-60
2022/03/01 05:13:01;;;;;;;;;3.50;2.00;16.60;99.90;;;;;;5049201;28;10860;-53
2022/03/01 05:15:33;;;;;;;;;2.25;2.25;16.60;99.90;;;;;;5049459;28;11075;-60
2022/03/01 05:18:04;;;;;;;;;3.75;3.00;16.60;99.90;;;;;;5057260;28;10879;-61
2022/03/01 05:20:37;;;;;;;;;3.75;3.75;16.60;99.90;;;;;;5051790;28;10974;-52
2022/03/01 05:23:09;;;;;;;;;4.25;3.50;16.50;99.90;;;;;;5052628;28;13683;-60
2022/03/01 05:25:41;;;;;;;;;4.00;4.00;16.50;99.90;;;;;;5047778;28;11560;-60
2022/03/01 05:28:12;;;;;;;;;3.00;3.00;16.50;99.90;;;;;;5053710;28;10959;-54
2022/03/01 05:30:43;;;;;;;;;3.75;3.75;16.40;99.90;;;;;;5046585;28;11460;-61
2022/03/01 05:33:15;;;;;;;;;3.75;3.75;16.40;99.90;;;;;;5054069;28;11462;-53
2022/03/01 05:35:46;;;;;;;;;5.75;2.75;16.40;99.90;;;;;;5052663;28;10957;-60
2022/03/01 05:38:20;;;;;;;;;3.00;3.00;16.30;99.90;;;;;;5042528;28;10917;-54
2022/03/01 05:40:51;;;;;;;;;2.25;2.25;16.30;99.90;;;;;;5050163;28;11401;-54
2022/03/01 05:43:23;;;;;;;;;2.00;2.00;16.30;99.90;;;;;;5055823;28;11295;-61
2022/03/01 05:45:54;;;;;;;;;2.00;2.00;16.20;99.90;;;;;;5045252;28;11862;-61
2022/03/01 05:48:26;;;;;;;;;5.00;3.25;16.20;99.90;;;;;;5053898;28;10923;-52
2022/03/01 05:50:58;;;;;;;;;6.00;4.50;16.20;99.90;;;;;;5053392;28;11817;-52
2022/03/01 05:53:33;;;;;;;;;3.25;3.00;16.10;99.90;;;;;;5056479;28;11193;-61
2022/03/01 05:56:04;;;;;;;;;3.50;3.50;16.10;99.90;;;;;;5049769;28;11166;-61
2022/03/01 05:58:34;;;;;;;;;4.00;4.00;16.00;99.90;;;;;;5053669;28;11199;-60
2022/03/01 06:01:06;;;;;;;;;2.75;2.75;16.00;99.90;;;;;;5046505;28;10980;-51
2022/03/01 06:03:40;;;;;;;;;0.50;0.50;16.00;99.90;;;;;;5056332;28;11222;-52
2022/03/01 06:06:14;;;;;;;;;2.25;2.25;15.90;99.90;;;;;;5049662;28;11034;-61
2022/03/01 06:08:47;;;;;;;;;3.50;3.50;15.90;99.90;;;;;;5050933;28;10971;-61
2022/03/01 06:11:20;;;;;;;;;3.00;3.00;15.90;99.90;;;;;;5048410;28;11446;-60
2022/03/01 06:13:50;;;;;;;;;4.25;4.25;15.80;99.90;;;;;;5052353;28;11426;-52
2022/03/01 06:16:24;;;;;;;;;4.00;4.00;15.70;99.90;;;;;;5049981;28;11465;-61
2022/03/01 06:18:56;;;;;;;;;3.25;3.25;15.80;99.90;;;;;;5049377;28;12491;-53
2022/03/01 06:21:27;;;;;;;;;4.00;4.00;15.70;99.90;;;;;;5049219;28;11194;-60
2022/03/01 06:23:58;;;;;;;;;3.00;3.00;15.70;99.90;;;;;;5048065;28;11427;-54
2022/03/01 06:26:30;;;;;;;;;4.50;3.00;15.60;99.90;;;;;;5055345;28;11471;-54
2022/03/01 06:29:00;;;;;;;;;3.25;3.25;15.70;99.90;;;;;;5050666;28;11086;-60
2022/03/01 06:31:31;;;;;;;;;3.00;3.00;15.60;99.90;;;;;;5050048;28;11898;-60
2022/03/01 06:34:03;;;;;;;;;3.75;3.75;15.60;99.90;;;;;;5051106;28;11081;-51
2022/03/01 06:36:36;;;;;;;;;3.00;3.00;15.60;99.90;;;;;;5053100;28;11497;-50
2022/03/01 06:39:07;;;;;;;;;3.00;3.00;15.60;99.90;;;;;;5050834;28;11117;-53
2022/03/01 06:41:40;;;;;;;;;4.00;2.50;15.50;99.90;;;;;;5049856;28;11463;-52
2022/03/01 06:44:11;;;;;;;;;2.00;2.00;15.60;99.90;;;;;;5046989;28;11091;-58
2022/03/01 06:46:42;;;;;;;;;2.00;2.00;15.50;99.90;;;;;;5048623;28;11189;-60
2022/03/01 06:49:13;;;;;;;;;1.00;1.00;15.50;99.90;;;;;;5052088;28;11240;-62
2022/03/01 06:51:45;;;;;;;;;1.50;1.50;15.50;99.90;;;;;;5054626;28;11448;-61
2022/03/01 06:54:17;;;;;;;;;3.00;2.00;15.50;99.90;;;;;;5048599;28;11607;-61
2022/03/01 06:56:48;;;;;;;;;2.00;2.00;15.40;99.90;;;;;;5051317;28;10958;-61
2022/03/01 06:59:21;;;;;;;;;3.75;2.25;15.40;99.90;;;;;;5050612;28;10981;-60
2022/03/01 07:01:54;;;;;;;;;2.00;2.00;15.40;99.90;;;;;;5049030;28;11467;-60
2022/03/01 07:04:30;;;;;;;;;1.00;1.00;15.40;99.90;;;;;;5050807;28;12676;-52
2022/03/01 07:07:00;;;;;;;;;1.50;1.50;15.40;99.90;;;;;;5054446;28;11144;-61
2022/03/01 07:09:30;;;;;;;;;4.00;4.00;15.40;99.90;;;;;;5048908;28;11052;-53
2022/03/01 07:12:01;;;;;;;;;3.25;3.25;15.30;99.90;;;;;;5048288;28;11036;-51
2022/03/01 07:14:32;;;;;;;;;3.00;3.00;15.40;99.90;;;;;;5048602;28;11103;-60
2022/03/01 07:17:06;;;;;;;;;2.00;2.00;15.30;99.90;;;;;;5047935;28;11258;-54
2022/03/01 07:19:40;;;;;;;;;2.00;2.00;15.30;99.90;;;;;;5056065;28;11033;-61
2022/03/01 07:22:19;;;;;;;;;3.25;2.00;15.30;99.90;;;;;;5052508;28;11215;-51
2022/03/01 07:24:54;;;;;;;;;3.00;3.00;15.30;99.90;;;;;;5051123;28;11090;-53
2022/03/01 07:27:25;;;;;;;;;1.75;1.75;15.20;99.90;;;;;;5048357;28;11189;-52
2022/03/01 07:29:58;;;;;;;;;2.75;2.75;15.20;99.90;;;;;;5050605;28;11071;-51
2022/03/01 07:32:29;;;;;;;;;1.00;1.00;15.20;99.90;;;;;;5048537;28;11451;-54
2022/03/01 07:34:59;;;;;;;;;2.75;2.75;15.10;99.90;;;;;;5049000;28;11091;-53
2022/03/01 07:37:33;;;;;;;;;1.50;1.50;15.10;99.90;;;;;;5054195;28;11920;-60
2022/03/01 07:40:13;;;;;;;;;3.00;3.00;15.10;99.90;;;;;;5049908;28;11127;-60
2022/03/01 07:42:46;;;;;;;;;2.00;2.00;15.10;99.90;;;;;;5053573;28;11892;-49
2022/03/01 07:45:20;;;;;;;;;2.25;2.00;15.00;99.90;;;;;;5019136;28;11076;-61
2022/03/01 07:47:52;;;;;;;;;2.75;2.75;15.00;99.90;;;;;;5049768;28;11430;-51
2022/03/01 07:50:23;;;;;;;;;2.00;2.00;15.00;99.90;;;;;;5054495;28;11244;-50
2022/03/01 07:52:54;;;;;;;;;2.25;2.25;15.00;99.90;;;;;;5055302;28;12002;-59
2022/03/01 07:55:26;;;;;;;;;2.00;2.00;15.00;99.90;;;;;;5050383;28;11105;-61
2022/03/01 07:57:57;;;;;;;;;2.00;2.00;15.00;99.90;;;;;;5052805;28;11520;-55
2022/03/01 08:00:30;;;;;;;;;4.50;3.00;15.00;99.90;;;;;;5049537;28;11473;-50
2022/03/01 08:03:02;;;;;;;;;3.75;2.00;14.90;99.90;;;;;;5052635;28;11888;-59
2022/03/01 08:05:33;;;;;;;;;1.25;0.00;14.90;99.90;;;;;;5054910;28;11457;-59
2022/03/01 08:08:03;;;;;;;;;2.00;2.00;14.90;99.90;;;;;;5047496;28;11219;-51
2022/03/01 08:10:36;;;;;;;;;3.50;3.50;14.80;99.90;;;;;;5056101;28;11474;-61
2022/03/01 08:13:26;;;;;;;;;2.00;2.00;14.80;99.90;;;;;;5054424;28;11477;-60
2022/03/01 08:15:57;;;;;;;;;2.00;2.00;14.80;99.90;;;;;;5050750;28;11467;-60
2022/03/01 08:18:29;;;;;;;;;1.00;1.00;14.80;99.90;;;;;;5048793;28;11473;-60
2022/03/01 08:21:00;;;;;;;;;3.00;3.00;14.70;99.90;;;;;;5050963;28;11416;-61
2022/03/01 08:23:30;;;;;;;;;2.00;2.00;14.70;99.90;;;;;;5050379;28;11463;-60
2022/03/01 08:26:01;;;;;;;;;2.00;2.00;14.70;99.90;;;;;;5049759;28;11479;-59
2022/03/01 08:28:32;;;;;;;;;4.00;4.00;14.60;99.90;;;;;;5053415;28;12219;-54
2022/03/01 08:31:03;;;;;;;;;3.00;3.00;14.60;99.90;;;;;;5047669;28;11469;-52
2022/03/01 08:33:35;;;;;;;;;4.00;4.00;14.60;99.90;;;;;;5053583;28;11455;-60
2022/03/01 08:36:10;;;;;;;;;4.00;2.50;14.50;99.90;;;;;;5053554;28;11504;-60
2022/03/01 08:38:42;;;;;;;;;4.00;2.75;14.50;99.90;;;;;;5049487;28;11456;-52
2022/03/01 08:41:15;;;;;;;;;3.50;3.00;14.50;99.90;;;;;;5052328;28;11477;-52
2022/03/01 08:43:46;;;;;;;;;2.25;2.25;14.50;99.90;;;;;;5047159;28;11472;-54
2022/03/01 08:46:17;;;;;;;;;3.25;3.25;14.40;99.90;;;;;;5050440;28;11465;-53
2022/03/01 08:48:51;;;;;;;;;2.75;2.25;14.30;99.90;;;;;;5054191;28;11460;-53
2022/03/01 08:51:28;;;;;;;;;1.00;1.00;14.30;99.90;;;;;;5055362;28;11455;-50
2022/03/01 08:53:59;;;;;;;;;1.00;1.00;14.20;99.90;;;;;;5051888;28;11426;-60
2022/03/01 08:56:30;;;;;;;;;3.00;3.00;14.20;99.90;;;;;;5051031;28;11458;-60
2022/03/01 08:59:05;;;;;;;;;1.75;1.75;14.10;99.90;;;;;;5051737;28;11465;-50
2022/03/01 09:01:38;;;;;;;;;1.75;1.75;14.10;99.90;;;;;;5047959;28;11429;-52
2022/03/01 09:04:09;;;;;;;;;2.25;2.00;14.10;99.90;;;;;;5051733;28;11475;-60
2022/03/01 09:06:41;;;;;;;;;2.25;1.00;14.10;99.90;;;;;;5036776;28;11473;-52
2022/03/01 09:09:12;;;;;;;;;2.75;2.75;14.10;99.90;;;;;;5058850;28;11420;-59
2022/03/01 09:11:43;;;;;;;;;2.50;2.50;14.10;99.90;;;;;;5059847;28;11448;-60
2022/03/01 09:14:15;;;;;;;;;3.00;2.25;14.10;99.90;;;;;;5055627;28;11430;-52
2022/03/01 09:16:50;;;;;;;;;1.00;1.00;14.10;99.90;;;;;;5054558;28;11433;-52
2022/03/01 09:19:21;;;;;;;;;2.75;2.75;14.10;99.90;;;;;;5058046;28;11435;-60
2022/03/01 09:21:53;;;;;;;;;1.50;1.50;14.10;99.90;;;;;;5055493;28;11477;-60
2022/03/01 09:24:23;;;;;;;;;3.50;3.50;14.10;99.90;;;;;;5058925;28;11446;-60
2022/03/01 09:26:53;;;;;;;;;4.00;3.00;14.00;99.90;;;;;;5053188;28;12242;-53
2022/03/01 09:29:25;;;;;;;;;3.75;3.75;14.00;99.90;;;;;;5060054;28;11830;-53
2022/03/01 09:31:56;;;;;;;;;4.00;4.00;14.00;99.90;;;;;;5052443;28;11470;-59
2022/03/01 09:34:28;;;;;;;;;7.00;6.75;13.90;99.90;;;;;;5060691;28;11917;-60
2022/03/01 09:37:00;;;;;;;;;5.75;5.00;13.90;99.90;;;;;;5055489;28;11485;-54
2022/03/01 09:39:31;;;;;;;;;5.25;5.25;13.80;99.90;;;;;;5056965;28;11455;-60
2022/03/01 09:42:02;;;;;;;;;5.00;5.00;13.90;99.90;;;;;;5057786;28;11559;-52
2022/03/01 09:44:35;;;;;;;;;5.00;5.00;13.80;99.90;;;;;;5051651;28;11519;-60
2022/03/01 09:47:08;;;;;;;;;4.75;4.75;13.80;99.90;;;;;;5057739;28;11437;-59
2022/03/01 09:49:39;;;;;;;;;6.50;6.50;13.80;99.90;;;;;;5058355;28;12212;-59
2022/03/01 09:52:17;;;;;;;;;6.00;4.00;13.70;99.90;;;;;;5048786;28;11544;-59
2022/03/01 09:54:50;;;;;;;;;5.00;5.00;13.70;99.90;;;;;;5056306;28;13143;-60
2022/03/01 09:57:20;;;;;;;;;5.75;5.75;13.60;99.90;;;;;;5062355;28;11527;-53
2022/03/01 09:59:53;;;;;;;;;4.75;4.75;13.60;99.90;;;;;;5055563;28;11562;-60
2022/03/01 10:02:38;;;;;;;;;5.75;5.75;13.60;99.90;;;;;;5057836;28;12126;-48
2022/03/01 10:05:10;;;;;;;;;4.50;4.50;13.60;99.90;;;;;;5055141;28;11548;-48
2022/03/01 10:07:48;;;;;;;;;5.50;5.50;13.50;99.90;;;;;;5051525;28;11503;-60
2022/03/01 10:10:19;;;;;;;;;5.25;5.00;13.50;99.90;;;;;;5034858;28;11498;-61
2022/03/01 10:12:56;;;;;;;;;5.00;5.00;13.50;99.90;;;;;;5058360;28;11509;-52
2022/03/01 10:15:31;;;;;;;;;7.25;7.25;13.50;99.90;;;;;;5050300;28;12283;-60
2022/03/01 10:18:14;;;;;;;;;5.00;3.50;13.40;99.90;;;;;;5053149;28;11459;-60
2022/03/01 10:20:47;;;;;;;;;5.75;5.75;13.40;99.90;;;;;;5053440;28;11545;-61
2022/03/01 10:23:23;;;;;;;;;6.75;6.00;13.40;99.90;;;;;;5051299;28;11536;-60
2022/03/01 10:25:53;;;;;;;;;6.75;5.25;13.40;99.90;;;;;;5050643;28;11531;-60
2022/03/01 10:28:36;;;;;;;;;3.00;3.00;13.30;99.90;;;;;;5055701;28;11505;-52
2022/03/01 10:31:13;;;;;;;;;5.00;5.00;13.30;99.90;;;;;;5040708;28;11562;-53
2022/03/01 10:34:04;;;;;;;;;6.00;5.00;13.30;99.90;;;;;;5057147;28;11513;-53
2022/03/01 10:36:49;;;;;;;;;4.50;4.50;13.20;99.90;;;;;;5059002;28;11502;-60
2022/03/01 10:39:22;;;;;;;;;3.25;3.25;13.20;99.90;;;;;;5052431;28;11562;-60
2022/03/01 10:41:56;;;;;;;;;5.25;5.25;13.20;99.90;;;;;;5055559;28;11532;-52
2022/03/01 10:44:30;;;;;;;;;6.00;4.50;13.20;99.90;;;;;;5053633;28;11497;-52
2022/03/01 10:47:03;;;;;;;;;5.75;5.75;13.10;99.90;;;;;;5050512;28;11515;-59
2022/03/01 10:49:36;;;;;;;;;5.00;4.00;13.10;99.90;;;;;;5051634;28;11481;-51
2022/03/01 10:52:14;;;;;;;;;5.50;4.50;13.10;99.90;;;;;;5053156;28;12295;-52
2022/03/01 10:54:49;;;;;;;;;5.00;4.75;13.10;99.90;;;;;;5052919;28;11469;-53
2022/03/01 10:57:24;;;;;;;;;5.25;5.25;13.00;99.90;;;;;;5055320;28;11546;-61
2022/03/01 10:59:54;;;;;;;;;4.00;4.00;13.00;99.90;;;;;;5051900;28;11530;-60
2022/03/01 11:02:25;;;;;;;;;7.50;6.00;13.00;99.90;;;;;;5053839;28;11538;-60
2022/03/01 11:04:57;;;;;;;;;4.00;4.00;13.00;99.90;;;;;;5052690;28;11510;-60
2022/03/01 11:07:29;;;;;;;;;4.00;4.00;13.00;99.90;;;;;;5052604;28;12427;-51
2022/03/01 11:10:01;;;;;;;;;5.50;4.00;12.90;99.90;;;;;;5053737;28;12211;-53
2022/03/01 11:12:36;;;;;;;;;6.00;5.50;12.90;99.90;;;;;;5054287;28;11576;-60
2022/03/01 11:15:14;;;;;;;;;6.00;6.00;12.90;99.90;;;;;;5047204;28;11489;-60
2022/03/01 11:18:11;;;;;;;;;4.00;4.00;12.90;99.90;;;;;;5050999;28;11526;-52
2022/03/01 11:20:46;;;;;;;;;5.00;5.00;12.80;99.90;;;;;;5054197;28;11489;-60
2022/03/01 11:23:22;;;;;;;;;9.25;5.75;12.70;99.90;;;;;;5051290;28;11555;-53
2022/03/01 11:25:54;;;;;;;;;4.00;4.00;12.70;99.90;;;;;;5058530;28;11536;-52
2022/03/01 11:28:40;;;;;;;;;3.75;3.75;12.70;99.90;;;;;;5057355;28;12061;-59
2022/03/01 11:31:31;;;;;;;;;5.00;5.00;12.70;99.90;;;;;;5050927;28;11543;-60
2022/03/01 11:34:07;;;;;;;;;4.00;4.00;12.70;99.90;;;;;;5048954;28;11550;-59
2022/03/01 11:36:38;;;;;;;;;3.00;3.00;12.70;99.90;;;;;;5056217;28;11563;-59
2022/03/01 11:39:17;;;;;;;;;4.00;4.00;12.70;99.90;;;;;;5054058;28;11546;-52
2022/03/01 11:41:50;;;;;;;;;4.00;4.00;12.60;99.90;;;;;;5052431;28;11524;-51
2022/03/01 11:44:32;;;;;;;;;6.00;6.00;12.50;99.90;;;;;;5049704;28;14348;-60
2022/03/01 11:47:07;;;;;;;;;3.75;3.75;12.50;99.90;;;;;;5048989;28;11530;-60
2022/03/01 11:49:40;;;;;;;;;5.75;5.00;12.40;99.90;;;;;;5050826;28;11513;-59
2022/03/01 11:52:20;;;;;;;;;4.75;4.75;12.40;99.90;;;;;;5052060;28;11518;-59
2022/03/01 11:54:58;;;;;;;;;4.25;4.25;12.40;99.90;;;;;;5056049;28;11517;-51
2022/03/01 11:57:33;;;;;;;;;4.00;4.00;12.40;99.90;;;;;;5049221;28;11627;-59
2022/03/01 12:00:04;;;;;;;;;3.25;3.25;12.30;99.90;;;;;;5052158;28;11553;-52
2022/03/01 12:02:36;;;;;;;;;6.50;6.50;12.40;99.90;;;;;;5055742;28;11504;-52
2022/03/01 12:05:07;;;;;;;;;4.00;4.00;12.30;99.90;;;;;;5051918;28;12272;-53
2022/03/01 12:07:39;;;;;;;;;3.00;3.00;12.40;99.90;;;;;;5056489;28;11520;-52
2022/03/01 12:10:30;;;;;;;;;4.25;4.25;12.30;99.90;;;;;;5051151;28;11512;-50
2022/03/01 12:13:07;;;;;;;;;5.75;5.75;12.30;99.90;;;;;;5051962;28;11531;-59
2022/03/01 12:15:41;;;;;;;;;5.00;5.00;12.20;99.90;;;;;;5054828;28;11506;-59
2022/03/01 12:18:15;;;;;;;;;4.00;4.00;12.20;99.90;;;;;;5053397;28;11521;-53
2022/03/01 12:20:47;;;;;;;;;3.00;3.00;12.10;99.90;;;;;;5047001;28;11538;-53
2022/03/01 12:23:32;;;;;;;;;5.00;5.00;12.10;99.90;;;;;;5054412;28;12119;-61
2022/03/01 12:26:04;;;;;;;;;4.00;4.00;12.10;99.90;;;;;;5055390;28;11527;-60
2022/03/01 12:28:44;;;;;;;;;3.50;3.50;12.10;99.90;;;;;;5052040;27;11516;-60
2022/03/01 12:31:26;;;;;;;;;4.00;4.00;12.10;99.90;;;;;;5056871;28;11498;-52
2022/03/01 12:34:03;;;;;;;;;3.00;3.00;12.00;99.90;;;;;;5048840;28;12167;-51
2022/03/01 12:36:36;;;;;;;;;5.50;3.50;12.00;99.90;;;;;;5052581;28;11547;-52
2022/03/01 12:39:12;;;;;;;;;2.50;2.50;12.00;99.90;;;;;;5052461;28;11538;-51
2022/03/01 12:41:50;;;;;;;;;5.25;5.25;12.10;99.90;;;;;;5053337;28;11508;-50
2022/03/01 12:44:30;;;;;;;;;8.00;6.00;12.10;99.90;;;;;;5050177;28;11546;-53
2022/03/01 12:47:01;;;;;;;;;5.50;5.50;12.00;99.90;;;;;;5055963;28;12300;-60
2022/03/01 12:49:35;;;;;;;;;10.75;9.00;12.00;99.90;;;;;;5054629;28;11477;-61
2022/03/01 12:52:06;;;;;;;;;5.75;5.75;12.00;99.90;;;;;;5051275;28;11559;-52
2022/03/01 12:54:39;;;;;;;;;11.75;11.75;12.00;99.90;;;;;;5051611;28;11553;-52
2022/03/01 12:57:13;;;;;;;;;9.50;8.00;12.00;99.90;;;;;;5053464;28;12201;-52
2022/03/01 12:59:44;;;;;;;;;11.25;11.25;11.90;99.90;;;;;;5043623;28;11989;-51
2022/03/01 13:02:17;;;;;;;;;15.50;14.00;11.90;99.90;;;;;;5052662;28;12295;-52
2022/03/01 13:04:49;;;;;;;;;9.50;9.50;11.90;99.90;;;;;;5049801;28;11568;-52
2022/03/01 13:07:30;;;;;;;;;11.50;11.50;11.90;99.90;;;;;;5051949;28;11554;-60
2022/03/01 13:10:03;;;;;;;;;13.00;13.00;11.80;99.90;;;;;;5058975;28;11770;-60
2022/03/01 13:12:33;;;;;;;;;11.75;11.75;11.80;99.90;;;;;;5050875;28;11537;-54
2022/03/01 13:15:05;;;;;;;;;15.00;15.00;11.80;99.90;;;;;;5048854;28;11532;-52
2022/03/01 13:17:36;;;;;;;;;16.75;16.75;11.80;99.90;;;;;;5052122;28;12309;-60